createdAt,value
2023-05-04T00:01:25.576Z,6.80
2023-05-04T00:03:54.607Z,6.90
2023-05-04T00:06:23.175Z,6.70
2023-05-04T00:08:51.284Z,6.70
2023-05-04T00:11:19.439Z,6.60
2023-05-04T00:13:47.539Z,6.50
2023-05-04T00:16:17.054Z,6.60
2023-05-04T00:18:45.179Z,6.50
2023-05-04T00:21:13.260Z,6.30
2023-05-04T00:23:42.039Z,5.90
2023-05-04T00:26:11.854Z,5.70
2023-05-04T00:28:41.814Z,5.50
2023-05-04T00:31:10.295Z,5.70
2023-05-04T00:33:40.381Z,5.90
2023-05-04T00:36:10.038Z,5.80
2023-05-04T00:38:53.283Z,5.70
2023-05-04T00:41:23.095Z,5.60
2023-05-04T00:43:51.982Z,5.30
2023-05-04T00:46:22.193Z,5.20
2023-05-04T00:48:53.629Z,5.30
2023-05-04T00:51:24.514Z,5.30
2023-05-04T00:53:54.990Z,5.50
2023-05-04T00:56:26.897Z,5.50
2023-05-04T00:58:58.228Z,5.40
2023-05-04T01:01:27.524Z,5.50
2023-05-04T01:03:58.884Z,5.70
2023-05-04T01:06:36.082Z,5.60
2023-05-04T01:09:10.855Z,5.70
2023-05-04T01:11:52.641Z,5.30
2023-05-04T01:14:22.628Z,5.10
2023-05-04T01:16:56.435Z,5.00
2023-05-04T01:19:28.184Z,4.90
2023-05-04T01:21:58.615Z,5.00
2023-05-04T01:24:29.620Z,5.00
2023-05-04T01:27:07.096Z,5.00
2023-05-04T01:29:43.749Z,5.00
2023-05-04T01:32:15.438Z,5.20
2023-05-04T01:34:44.256Z,5.20
2023-05-04T01:37:14.417Z,4.90
2023-05-04T01:39:44.721Z,5.00
2023-05-04T01:42:13.962Z,5.10
2023-05-04T01:44:44.860Z,5.00
2023-05-04T01:47:13.493Z,4.90
2023-05-04T01:49:42.884Z,4.90
2023-05-04T01:52:11.528Z,4.80
2023-05-04T01:54:42.062Z,4.80
2023-05-04T01:57:12.498Z,4.70
2023-05-04T01:59:41.309Z,4.80
2023-05-04T02:02:10.929Z,4.50
2023-05-04T02:04:40.053Z,4.50
2023-05-04T02:07:09.993Z,4.60
2023-05-04T02:09:38.591Z,4.60
2023-05-04T02:12:10.063Z,4.60
2023-05-04T02:14:41.301Z,4.70
2023-05-04T02:17:10.473Z,4.70
2023-05-04T02:19:39.465Z,4.70
2023-05-04T02:22:08.416Z,4.40
2023-05-04T02:24:37.614Z,4.60
2023-05-04T02:27:08.722Z,4.50
2023-05-04T02:29:38.888Z,4.60
2023-05-04T02:32:08.853Z,4.70
2023-05-04T02:34:38.140Z,4.60
2023-05-04T02:37:07.483Z,4.30
2023-05-04T02:39:39.871Z,4.30
2023-05-04T02:42:13.183Z,4.40
2023-05-04T02:44:42.013Z,4.50
2023-05-04T02:47:11.130Z,4.50
2023-05-04T02:49:39.982Z,4.60
2023-05-04T02:52:08.464Z,4.60
2023-05-04T02:54:38.649Z,4.10
2023-05-04T02:57:07.635Z,4.00
2023-05-04T02:59:37.996Z,4.10
2023-05-04T03:02:06.240Z,4.00
2023-05-04T03:04:35.137Z,4.00
2023-05-04T03:07:03.613Z,4.10
2023-05-04T03:09:32.737Z,4.30
2023-05-04T03:12:01.776Z,4.40
2023-05-04T03:14:31.060Z,4.40
2023-05-04T03:17:01.348Z,4.70
2023-05-04T03:19:30.348Z,4.80
2023-05-04T03:21:58.578Z,4.80
2023-05-04T03:24:27.672Z,4.90
2023-05-04T03:26:56.633Z,4.90
2023-05-04T03:29:26.448Z,4.90
2023-05-04T03:31:56.449Z,4.90
2023-05-04T03:34:27.381Z,4.50
2023-05-04T03:37:01.252Z,4.40
2023-05-04T03:39:30.130Z,4.30
2023-05-04T03:41:59.369Z,4.50
2023-05-04T03:44:27.679Z,4.50
2023-05-04T03:46:56.905Z,4.20
2023-05-04T03:49:27.767Z,4.40
2023-05-04T03:51:56.616Z,4.30
2023-05-04T03:54:26.372Z,4.30
2023-05-04T03:56:56.772Z,4.50
2023-05-04T03:59:25.525Z,4.30
2023-05-04T04:01:55.554Z,4.20
2023-05-04T04:04:25.042Z,4.20
2023-05-04T04:06:55.881Z,4.00
2023-05-04T04:09:25.912Z,4.10
2023-05-04T04:11:55.732Z,4.00
2023-05-04T04:14:24.602Z,3.90
2023-05-04T04:16:53.796Z,4.00
2023-05-04T04:19:23.022Z,3.90
2023-05-04T04:21:52.006Z,3.80
2023-05-04T04:24:21.986Z,3.90
2023-05-04T04:26:50.970Z,4.00
2023-05-04T04:29:21.167Z,4.10
2023-05-04T04:31:50.252Z,4.00
2023-05-04T04:34:19.083Z,4.20
2023-05-04T04:36:48.140Z,4.30
2023-05-04T04:39:17.296Z,4.40
2023-05-04T04:41:47.215Z,4.70
2023-05-04T04:44:16.179Z,5.00
2023-05-04T04:46:48.509Z,5.50
2023-05-04T04:49:18.018Z,7.20
2023-05-04T04:51:49.043Z,7.00
2023-05-04T04:54:17.574Z,8.10
2023-05-04T04:56:48.271Z,8.20
2023-05-04T04:59:17.748Z,8.30
2023-05-04T05:01:46.648Z,8.00
2023-05-04T05:04:16.122Z,8.20
2023-05-04T05:06:45.735Z,7.60
2023-05-04T05:09:14.741Z,8.50
2023-05-04T05:11:44.025Z,8.60
2023-05-04T05:14:15.720Z,7.90
2023-05-04T05:16:45.864Z,8.40
2023-05-04T05:19:14.607Z,8.50
2023-05-04T05:21:43.451Z,8.40
2023-05-04T05:24:12.613Z,8.70
2023-05-04T05:26:41.667Z,8.40
2023-05-04T05:29:10.443Z,8.60
2023-05-04T05:31:41.505Z,8.50
2023-05-04T05:34:10.167Z,9.20
2023-05-04T05:36:39.359Z,9.00
2023-05-04T05:39:09.120Z,9.30
2023-05-04T05:41:37.922Z,9.10
2023-05-04T05:44:06.882Z,9.20
2023-05-04T05:46:35.865Z,9.10
2023-05-04T05:49:08.133Z,9.20
2023-05-04T05:51:36.871Z,9.60
2023-05-04T05:54:05.789Z,9.40
2023-05-04T05:56:34.398Z,9.50
2023-05-04T05:59:03.749Z,9.40
2023-05-04T06:01:33.859Z,9.40
2023-05-04T06:04:03.354Z,9.70
2023-05-04T06:06:33.672Z,9.90
2023-05-04T06:09:04.609Z,10.30
2023-05-04T06:11:34.682Z,10.10
2023-05-04T06:14:04.951Z,10.00
2023-05-04T06:16:34.205Z,10.00
2023-05-04T06:19:03.523Z,10.00
2023-05-04T06:21:35.117Z,10.10
2023-05-04T06:24:04.153Z,10.10
2023-05-04T06:26:33.674Z,10.10
2023-05-04T06:29:02.513Z,10.20
2023-05-04T06:31:31.037Z,10.50
2023-05-04T06:33:59.654Z,10.50
2023-05-04T06:36:28.826Z,10.60
2023-05-04T06:39:00.355Z,10.80
2023-05-04T06:41:29.278Z,10.80
2023-05-04T06:44:00.027Z,10.80
2023-05-04T06:46:28.657Z,10.70
2023-05-04T06:48:57.394Z,10.70
2023-05-04T06:51:26.106Z,10.90
2023-05-04T06:53:55.541Z,10.80
2023-05-04T06:56:25.904Z,10.90
2023-05-04T06:58:56.484Z,11.10
2023-05-04T07:01:25.541Z,11.00
2023-05-04T07:03:58.564Z,11.10
2023-05-04T07:06:28.963Z,11.10
2023-05-04T07:08:58.456Z,11.30
2023-05-04T07:11:29.215Z,11.40
2023-05-04T07:13:57.918Z,11.60
2023-05-04T07:16:27.397Z,11.80
2023-05-04T07:18:56.067Z,11.70
2023-05-04T07:21:28.562Z,11.80
2023-05-04T07:24:01.576Z,11.90
2023-05-04T07:26:32.186Z,11.90
2023-05-04T07:29:00.696Z,12.00
2023-05-04T07:31:30.582Z,12.20
2023-05-04T07:33:59.506Z,12.20
2023-05-04T07:36:28.219Z,12.10
2023-05-04T07:38:57.354Z,12.30
2023-05-04T07:41:27.636Z,12.10
2023-05-04T07:43:59.613Z,12.60
2023-05-04T07:46:27.906Z,12.60
2023-05-04T07:48:57.051Z,12.60
2023-05-04T07:51:28.923Z,12.70
2023-05-04T07:53:58.035Z,13.20
2023-05-04T07:56:30.405Z,12.80
2023-05-04T07:59:00.618Z,12.90
2023-05-04T08:01:31.833Z,12.60
2023-05-04T08:04:01.005Z,12.90
2023-05-04T08:06:30.946Z,13.00
2023-05-04T08:08:59.895Z,13.10
2023-05-04T08:11:28.615Z,13.20
2023-05-04T08:13:59.741Z,13.20
2023-05-04T08:16:30.831Z,13.20
2023-05-04T08:19:01.964Z,13.40
2023-05-04T08:21:31.416Z,13.50
2023-05-04T08:24:00.170Z,13.70
2023-05-04T08:26:31.559Z,13.80
2023-05-04T08:29:08.334Z,14.20
2023-05-04T08:31:38.798Z,14.00
2023-05-04T08:34:08.272Z,14.00
2023-05-04T08:36:37.538Z,14.10
2023-05-04T08:39:07.019Z,14.00
2023-05-04T08:41:43.257Z,14.00
2023-05-04T08:44:13.039Z,14.10
2023-05-04T08:46:43.984Z,14.40
2023-05-04T08:49:19.476Z,14.10
2023-05-04T08:51:50.113Z,14.20
2023-05-04T08:54:19.066Z,14.60
2023-05-04T08:56:47.859Z,14.30
2023-05-04T08:59:20.500Z,14.70
2023-05-04T09:01:54.732Z,15.00
2023-05-04T09:04:23.658Z,14.40
2023-05-04T09:06:53.862Z,15.00
2023-05-04T09:09:22.848Z,15.40
2023-05-04T09:11:50.927Z,15.10
2023-05-04T09:14:19.017Z,14.80
2023-05-04T09:16:47.555Z,15.60
2023-05-04T09:19:21.208Z,15.50
2023-05-04T09:21:51.273Z,14.90
2023-05-04T09:24:27.762Z,15.20
2023-05-04T09:26:56.038Z,14.90
2023-05-04T09:29:25.643Z,15.20
2023-05-04T09:31:55.504Z,15.00
2023-05-04T09:34:25.684Z,15.40
2023-05-04T09:37:01.599Z,15.30
2023-05-04T09:39:30.288Z,15.80
2023-05-04T09:41:58.324Z,15.70
2023-05-04T09:44:29.660Z,15.60
2023-05-04T09:46:59.380Z,15.80
2023-05-04T09:49:37.059Z,16.40
2023-05-04T09:52:07.080Z,16.40
2023-05-04T09:54:38.749Z,15.90
2023-05-04T09:57:13.065Z,16.50
2023-05-04T09:59:41.750Z,16.30
2023-05-04T10:02:22.079Z,16.60
2023-05-04T10:04:53.061Z,16.60
2023-05-04T10:07:21.665Z,16.60
2023-05-04T10:09:51.261Z,16.50
2023-05-04T10:12:19.639Z,16.60
2023-05-04T10:14:48.416Z,16.50
2023-05-04T10:17:24.437Z,16.50
2023-05-04T10:20:07.472Z,17.40
2023-05-04T10:22:55.053Z,16.80
2023-05-04T10:25:37.901Z,17.00
2023-05-04T10:28:14.359Z,17.20
2023-05-04T10:30:42.591Z,17.60
2023-05-04T10:33:11.020Z,17.50
2023-05-04T10:35:52.000Z,16.90
2023-05-04T10:38:20.496Z,17.60
2023-05-04T10:40:50.925Z,16.80
2023-05-04T10:43:24.381Z,17.50
2023-05-04T10:45:52.493Z,17.70
2023-05-04T10:48:20.613Z,18.00
2023-05-04T10:50:51.394Z,17.50
2023-05-04T10:53:19.976Z,18.10
2023-05-04T10:55:49.287Z,18.00
2023-05-04T10:58:20.123Z,18.30
2023-05-04T11:00:51.511Z,18.80
2023-05-04T11:03:22.291Z,18.80
2023-05-04T11:05:54.562Z,18.70
2023-05-04T11:08:24.389Z,18.70
2023-05-04T11:11:02.452Z,18.30
2023-05-04T11:13:31.223Z,18.60
2023-05-04T11:15:59.567Z,18.50
2023-05-04T11:18:30.916Z,18.20
2023-05-04T11:23:29.698Z,19.30
2023-05-04T11:25:58.096Z,18.50
2023-05-04T11:28:37.245Z,18.50
2023-05-04T11:31:23.241Z,19.30
2023-05-04T11:33:52.480Z,18.80
2023-05-04T11:36:23.261Z,18.70
2023-05-04T11:38:51.930Z,18.90
2023-05-04T11:41:19.980Z,19.70
2023-05-04T11:43:48.484Z,19.40
2023-05-04T11:46:18.068Z,19.60
2023-05-04T11:48:46.258Z,19.30
2023-05-04T11:51:14.785Z,18.90
2023-05-04T11:53:44.271Z,19.10
2023-05-04T11:56:12.307Z,20.10
2023-05-04T11:58:40.625Z,19.20
2023-05-04T12:01:08.623Z,20.40
2023-05-04T12:03:52.976Z,20.00
2023-05-04T12:06:33.122Z,19.90
2023-05-04T12:09:07.044Z,20.20
2023-05-04T12:11:35.891Z,20.40
2023-05-04T12:14:06.125Z,20.80
2023-05-04T12:16:34.715Z,20.30
2023-05-04T12:19:04.970Z,20.20
2023-05-04T12:21:33.996Z,20.20
2023-05-04T12:24:03.287Z,20.30
2023-05-04T12:26:32.889Z,21.40
2023-05-04T12:29:01.044Z,20.70
2023-05-04T12:31:30.373Z,20.40
2023-05-04T12:33:58.454Z,20.50
2023-05-04T12:36:26.955Z,20.60
2023-05-04T12:38:54.971Z,22.00
2023-05-04T12:41:23.298Z,20.60
2023-05-04T12:43:52.684Z,20.70
2023-05-04T12:46:22.500Z,20.30
2023-05-04T12:48:50.776Z,20.80
2023-05-04T12:51:18.788Z,20.80
2023-05-04T12:53:46.777Z,22.20
2023-05-04T12:56:14.819Z,21.60
2023-05-04T12:58:42.864Z,22.20
2023-05-04T13:01:12.924Z,21.00
2023-05-04T13:03:41.186Z,21.40
2023-05-04T13:06:09.585Z,20.60
2023-05-04T13:08:37.655Z,22.10
2023-05-04T13:11:05.674Z,22.50
2023-05-04T13:13:33.766Z,22.20
2023-05-04T13:16:02.198Z,22.60
2023-05-04T13:18:31.813Z,21.10
2023-05-04T13:21:00.073Z,21.20
2023-05-04T13:23:28.162Z,21.80
2023-05-04T13:25:56.102Z,22.10
2023-05-04T13:28:24.359Z,22.30
2023-05-04T13:30:53.064Z,22.20
2023-05-04T13:33:29.577Z,22.90
2023-05-04T13:36:02.090Z,23.40
2023-05-04T13:38:30.285Z,23.60
2023-05-04T13:40:58.280Z,24.30
2023-05-04T13:43:26.393Z,23.10
2023-05-04T13:45:56.057Z,23.00
2023-05-04T13:48:25.570Z,23.00
2023-05-04T13:50:53.684Z,23.00
2023-05-04T13:53:23.325Z,23.90
2023-05-04T13:55:51.375Z,23.90
2023-05-04T13:58:19.349Z,22.90
2023-05-04T14:00:47.490Z,22.60
2023-05-04T14:03:15.558Z,22.90
2023-05-04T14:05:43.604Z,22.60
2023-05-04T14:08:12.096Z,23.20
2023-05-04T14:10:41.467Z,23.20
2023-05-04T14:13:09.472Z,23.70
2023-05-04T14:15:37.560Z,23.20
2023-05-04T14:18:05.747Z,23.20
2023-05-04T14:20:33.836Z,24.20
2023-05-04T14:23:01.961Z,23.60
2023-05-04T14:25:30.092Z,23.90
2023-05-04T14:27:59.535Z,22.80
2023-05-04T14:30:27.673Z,24.10
2023-05-04T14:32:56.682Z,23.60
2023-05-04T14:35:25.289Z,23.80
2023-05-04T14:37:53.400Z,23.60
2023-05-04T14:40:21.627Z,22.90
2023-05-04T14:42:49.700Z,23.10
2023-05-04T14:45:20.254Z,22.80
2023-05-04T14:47:48.356Z,22.40
2023-05-04T14:50:16.539Z,23.30
2023-05-04T14:52:44.535Z,23.10
2023-05-04T14:55:12.623Z,24.20
2023-05-04T14:57:41.703Z,23.70
2023-05-04T15:00:11.186Z,23.80
2023-05-04T15:02:41.437Z,23.40
2023-05-04T15:05:12.544Z,23.40
2023-05-04T15:07:40.916Z,23.60
2023-05-04T15:10:10.820Z,22.80
2023-05-04T15:12:39.557Z,23.50
2023-05-04T15:15:08.636Z,22.40
2023-05-04T15:17:36.741Z,22.80
2023-05-04T15:20:07.530Z,22.00
2023-05-04T15:22:36.077Z,22.00
2023-05-04T15:25:04.115Z,22.10
2023-05-04T15:27:32.330Z,21.90
2023-05-04T15:30:00.462Z,21.90
2023-05-04T15:32:28.547Z,22.50
2023-05-04T15:35:04.460Z,22.00
2023-05-04T15:37:35.479Z,21.90
2023-05-04T15:40:04.303Z,21.80
2023-05-04T15:42:32.920Z,21.60
2023-05-04T15:45:01.205Z,21.20
2023-05-04T15:47:29.378Z,21.90
2023-05-04T15:49:57.437Z,21.70
2023-05-04T15:52:26.357Z,21.10
2023-05-04T15:54:56.193Z,21.30
2023-05-04T15:57:24.314Z,21.70
2023-05-04T15:59:52.338Z,21.60
2023-05-04T16:02:20.512Z,21.50
2023-05-04T16:04:48.614Z,21.90
2023-05-04T16:07:16.687Z,21.80
2023-05-04T16:09:44.699Z,21.30
2023-05-04T16:12:14.059Z,21.30
2023-05-04T16:14:42.084Z,21.50
2023-05-04T16:17:10.208Z,20.80
2023-05-04T16:19:38.210Z,21.60
2023-05-04T16:22:06.294Z,21.50
2023-05-04T16:24:36.102Z,21.50
2023-05-04T16:27:04.385Z,21.30
2023-05-04T16:29:33.743Z,21.20
2023-05-04T16:32:03.021Z,21.80
2023-05-04T16:34:31.088Z,22.10
2023-05-04T16:36:59.147Z,22.80
2023-05-04T16:39:31.530Z,23.10
2023-05-04T16:41:59.727Z,22.30
2023-05-04T16:44:27.984Z,22.10
2023-05-04T16:46:57.259Z,22.90
2023-05-04T16:49:25.534Z,23.00
2023-05-04T16:51:55.288Z,22.90
2023-05-04T16:54:24.149Z,22.40
2023-05-04T16:56:53.088Z,22.10
2023-05-04T16:59:21.104Z,21.80
2023-05-04T17:01:49.191Z,21.20
2023-05-04T17:04:18.654Z,20.50
2023-05-04T17:06:46.665Z,21.00
2023-05-04T17:09:14.654Z,21.20
2023-05-04T17:11:42.840Z,21.20
2023-05-04T17:14:10.985Z,21.30
2023-05-04T17:16:39.257Z,21.50
2023-05-04T17:19:08.807Z,21.70
2023-05-04T17:21:40.270Z,21.60
2023-05-04T17:24:08.477Z,21.60
2023-05-04T17:26:36.602Z,21.40
2023-05-04T17:29:05.164Z,21.80
2023-05-04T17:31:33.261Z,21.50
2023-05-04T17:34:01.509Z,21.60
2023-05-04T17:36:29.555Z,20.90
2023-05-04T17:38:59.097Z,20.70
2023-05-04T17:41:27.226Z,20.40
2023-05-04T17:43:55.982Z,20.40
2023-05-04T17:46:25.146Z,20.00
2023-05-04T17:48:54.491Z,19.90
2023-05-04T17:51:22.802Z,19.70
2023-05-04T17:53:50.887Z,19.30
2023-05-04T17:56:21.327Z,19.00
2023-05-04T17:58:49.370Z,19.30
2023-05-04T18:01:17.516Z,19.50
2023-05-04T18:03:45.744Z,19.00
2023-05-04T18:06:13.842Z,18.80
2023-05-04T18:08:41.821Z,18.90
2023-05-04T18:11:09.842Z,18.90
2023-05-04T18:13:39.323Z,18.60
2023-05-04T18:16:07.782Z,18.40
2023-05-04T18:18:35.931Z,18.00
2023-05-04T18:21:04.019Z,17.90
2023-05-04T18:23:32.225Z,17.50
2023-05-04T18:26:00.223Z,17.30
2023-05-04T18:28:28.243Z,17.00
2023-05-04T18:30:57.657Z,17.10
2023-05-04T18:33:25.722Z,17.00
2023-05-04T18:38:22.190Z,16.50
2023-05-04T18:40:54.156Z,16.90
2023-05-04T18:43:22.144Z,16.30
2023-05-04T18:45:50.321Z,16.30
2023-05-04T18:48:20.084Z,16.10
2023-05-04T18:50:54.012Z,16.30
2023-05-04T18:53:22.254Z,15.80
2023-05-04T18:56:01.014Z,15.70
2023-05-04T18:58:29.152Z,15.70
2023-05-04T19:00:57.175Z,15.40
2023-05-04T19:03:26.753Z,15.30
2023-05-04T19:05:55.653Z,15.70
2023-05-04T19:08:23.716Z,15.40
2023-05-04T19:10:51.813Z,15.50
2023-05-04T19:13:20.837Z,15.30
2023-05-04T19:15:49.078Z,15.30
2023-05-04T19:18:17.661Z,15.00
2023-05-04T19:20:48.370Z,14.90
2023-05-04T19:23:16.477Z,14.70
2023-05-04T19:25:45.026Z,15.00
2023-05-04T19:28:13.342Z,14.90
2023-05-04T19:30:41.819Z,15.30
2023-05-04T19:33:10.029Z,15.00
2023-05-04T19:35:38.369Z,14.90
2023-05-04T19:38:07.884Z,14.50
2023-05-04T19:40:36.259Z,14.40
2023-05-04T19:43:04.679Z,14.30
2023-05-04T19:45:32.847Z,14.40
2023-05-04T19:48:00.944Z,14.20
2023-05-04T19:50:29.462Z,14.00
2023-05-04T19:52:57.567Z,13.80
2023-05-04T19:55:27.090Z,13.80
2023-05-04T19:57:55.120Z,14.00
2023-05-04T20:00:23.234Z,14.20
2023-05-04T20:02:51.655Z,14.00
2023-05-04T20:05:20.060Z,13.80
2023-05-04T20:07:48.171Z,13.80
2023-05-04T20:10:16.610Z,14.20
2023-05-04T20:12:46.685Z,14.50
2023-05-04T20:15:14.734Z,13.80
2023-05-04T20:17:42.968Z,13.60
2023-05-04T20:20:11.841Z,13.40
2023-05-04T20:22:40.145Z,13.30
2023-05-04T20:25:08.712Z,13.40
2023-05-04T20:27:38.207Z,13.50
2023-05-04T20:30:09.792Z,13.40
2023-05-04T20:32:38.334Z,13.40
2023-05-04T20:35:07.319Z,12.90
2023-05-04T20:37:35.506Z,13.00
2023-05-04T20:40:03.792Z,12.90
2023-05-04T20:42:32.037Z,12.90
2023-05-04T20:45:00.147Z,13.50
2023-05-04T20:47:29.689Z,13.40
2023-05-04T20:49:57.730Z,12.70
2023-05-04T20:52:25.796Z,12.30
2023-05-04T20:54:54.690Z,12.10
2023-05-04T20:57:22.814Z,12.00
2023-05-04T20:59:50.985Z,12.00
2023-05-04T21:02:19.148Z,12.00
2023-05-04T21:04:49.750Z,12.10
2023-05-04T21:07:17.834Z,11.90
2023-05-04T21:09:46.054Z,12.00
2023-05-04T21:12:14.072Z,12.00
2023-05-04T21:14:43.402Z,12.00
2023-05-04T21:17:11.883Z,11.80
2023-05-04T21:19:40.040Z,11.80
2023-05-04T21:22:09.696Z,11.60
2023-05-04T21:24:37.772Z,11.50
2023-05-04T21:27:05.781Z,11.60
2023-05-04T21:29:33.858Z,11.60
2023-05-04T21:32:01.917Z,11.60
2023-05-04T21:34:30.049Z,11.50
2023-05-04T21:36:58.273Z,11.30
2023-05-04T21:39:27.802Z,11.40
2023-05-04T21:41:55.882Z,11.30
2023-05-04T21:44:24.001Z,11.30
2023-05-04T21:46:53.719Z,11.10
2023-05-04T21:49:23.278Z,11.20
2023-05-04T21:51:51.386Z,11.10
2023-05-04T21:54:19.423Z,11.10
2023-05-04T21:56:48.886Z,10.90
2023-05-04T21:59:16.967Z,10.90
2023-05-04T22:01:45.036Z,10.80
2023-05-04T22:04:13.174Z,10.60
2023-05-04T22:06:41.492Z,10.50
2023-05-04T22:09:09.487Z,10.40
2023-05-04T22:11:37.598Z,10.30
2023-05-04T22:14:06.997Z,10.10
2023-05-04T22:16:35.126Z,10.00
2023-05-04T22:19:03.265Z,9.80
2023-05-04T22:21:31.355Z,9.70
2023-05-04T22:23:59.568Z,9.80
2023-05-04T22:26:27.784Z,9.70
2023-05-04T22:28:55.851Z,9.60
2023-05-04T22:31:25.373Z,9.40
2023-05-04T22:33:53.393Z,9.40
2023-05-04T22:36:21.891Z,9.40
2023-05-04T22:38:52.520Z,9.30
2023-05-04T22:41:21.075Z,9.30
2023-05-04T22:43:49.062Z,9.40
2023-05-04T22:46:17.550Z,9.40
2023-05-04T22:48:47.933Z,9.20
2023-05-04T22:51:16.776Z,9.00
2023-05-04T22:53:44.947Z,8.70
2023-05-04T22:56:13.087Z,9.00
2023-05-04T22:58:41.080Z,9.10
2023-05-04T23:01:11.640Z,9.30
2023-05-04T23:03:40.078Z,9.20
2023-05-04T23:06:09.778Z,9.30
2023-05-04T23:08:38.672Z,9.20
2023-05-04T23:11:06.788Z,9.20
2023-05-04T23:13:35.147Z,9.00
2023-05-04T23:16:03.758Z,8.70
2023-05-04T23:18:32.953Z,8.60
2023-05-04T23:21:01.231Z,8.60
2023-05-04T23:23:31.148Z,8.70
2023-05-04T23:25:59.146Z,8.60
2023-05-04T23:28:27.177Z,8.50
2023-05-04T23:30:55.754Z,8.30
2023-05-04T23:33:23.966Z,8.30
2023-05-04T23:35:55.646Z,8.20
2023-05-04T23:38:23.866Z,8.20
2023-05-04T23:40:53.827Z,8.40
2023-05-04T23:43:23.306Z,8.50
2023-05-04T23:45:59.288Z,8.40
2023-05-04T23:48:27.306Z,8.30
2023-05-04T23:50:57.457Z,8.20
2023-05-04T23:53:25.954Z,8.10
2023-05-04T23:56:04.052Z,8.20
2023-05-04T23:58:33.430Z,8.20
